sensor_id;sensor_type;location;lat;lon;timestamp;temperature;humidity
20364;DHT22;10340;53.664;9.908;2023-02-28T00:00:36;3.90;99.90
20364;DHT22;10340;53.664;9.908;2023-02-28T00:03:03;3.90;99.90
20364;DHT22;10340;53.664;9.908;2023-02-28T00:05:31;3.90;99.90
20364;DHT22;10340;53.664;9.908;2023-02-28T00:07:58;3.90;99.90
20364;DHT22;10340;53.664;9.908;2023-02-28T00:10:27;3.90;99.90
20364;DHT22;10340;53.664;9.908;2023-02-28T00:12:55;3.90;99.90
20364;DHT22;10340;53.664;9.908;2023-02-28T00:15:24;3.90;99.90
20364;DHT22;10340;53.664;9.908;2023-02-28T00:17:52;3.80;99.90
20364;DHT22;10340;53.664;9.908;2023-02-28T00:20:19;3.80;99.90
20364;DHT22;10340;53.664;9.908;2023-02-28T00:22:47;3.80;99.90
20364;DHT22;10340;53.664;9.908;2023-02-28T00:25:16;3.70;99.90
20364;DHT22;10340;53.664;9.908;2023-02-28T00:27:44;3.80;99.90
20364;DHT22;10340;53.664;9.908;2023-02-28T00:30:13;3.70;99.90
20364;DHT22;10340;53.664;9.908;2023-02-28T00:32:42;3.40;99.90
20364;DHT22;10340;53.664;9.908;2023-02-28T00:35:09;3.80;99.90
20364;DHT22;10340;53.664;9.908;2023-02-28T00:37:37;3.70;99.90
20364;DHT22;10340;53.664;9.908;2023-02-28T00:40:06;3.70;99.90
20364;DHT22;10340;53.664;9.908;2023-02-28T00:42:34;3.70;99.90
20364;DHT22;10340;53.664;9.908;2023-02-28T00:45:02;3.70;99.90
20364;DHT22;10340;53.664;9.908;2023-02-28T00:47:30;3.70;99.90
20364;DHT22;10340;53.664;9.908;2023-02-28T00:49:59;3.70;99.90
20364;DHT22;10340;53.664;9.908;2023-02-28T00:52:26;3.60;99.90
20364;DHT22;10340;53.664;9.908;2023-02-28T00:54:55;3.60;99.90
20364;DHT22;10340;53.664;9.908;2023-02-28T00:57:23;3.50;99.90
20364;DHT22;10340;53.664;9.908;2023-02-28T00:59:50;3.50;99.90
20364;DHT22;10340;53.664;9.908;2023-02-28T01:02:19;3.50;99.90
20364;DHT22;10340;53.664;9.908;2023-02-28T01:04:48;3.50;99.90
20364;DHT22;10340;53.664;9.908;2023-02-28T01:07:17;3.60;99.90
20364;DHT22;10340;53.664;9.908;2023-02-28T01:09:44;3.50;99.90
20364;DHT22;10340;53.664;9.908;2023-02-28T01:12:11;3.50;99.90
20364;DHT22;10340;53.664;9.908;2023-02-28T01:14:37;3.40;99.90
20364;DHT22;10340;53.664;9.908;2023-02-28T01:17:04;3.40;99.90
20364;DHT22;10340;53.664;9.908;2023-02-28T01:19:31;3.40;99.90
20364;DHT22;10340;53.664;9.908;2023-02-28T01:22:01;3.40;99.90
20364;DHT22;10340;53.664;9.908;2023-02-28T01:24:29;3.30;99.90
20364;DHT22;10340;53.664;9.908;2023-02-28T01:26:57;3.30;99.90
20364;DHT22;10340;53.664;9.908;2023-02-28T01:29:24;3.30;99.90
20364;DHT22;10340;53.664;9.908;2023-02-28T01:31:50;3.30;99.90
20364;DHT22;10340;53.664;9.908;2023-02-28T01:34:18;3.30;99.90
20364;DHT22;10340;53.664;9.908;2023-02-28T01:36:45;3.30;99.90
20364;DHT22;10340;53.664;9.908;2023-02-28T01:39:12;3.30;99.90
20364;DHT22;10340;53.664;9.908;2023-02-28T01:41:41;3.30;99.90
20364;DHT22;10340;53.664;9.908;2023-02-28T01:47:08;3.30;99.90
20364;DHT22;10340;53.664;9.908;2023-02-28T01:49:36;3.30;99.90
20364;DHT22;10340;53.664;9.908;2023-02-28T01:52:03;3.30;99.90
20364;DHT22;10340;53.664;9.908;2023-02-28T01:54:32;3.30;99.90
20364;DHT22;10340;53.664;9.908;2023-02-28T01:57:04;3.20;99.90
20364;DHT22;10340;53.664;9.908;2023-02-28T01:59:35;3.20;99.90
20364;DHT22;10340;53.664;9.908;2023-02-28T02:02:03;3.10;99.90
20364;DHT22;10340;53.664;9.908;2023-02-28T02:04:35;3.20;99.90
20364;DHT22;10340;53.664;9.908;2023-02-28T02:07:03;3.10;99.90
20364;DHT22;10340;53.664;9.908;2023-02-28T02:09:30;3.00;99.90
20364;DHT22;10340;53.664;9.908;2023-02-28T02:11:58;3.00;99.90
20364;DHT22;10340;53.664;9.908;2023-02-28T02:14:37;2.90;99.90
20364;DHT22;10340;53.664;9.908;2023-02-28T02:17:17;2.90;99.90
20364;DHT22;10340;53.664;9.908;2023-02-28T02:25:53;2.80;99.90
20364;DHT22;10340;53.664;9.908;2023-02-28T02:28:44;2.80;99.90
20364;DHT22;10340;53.664;9.908;2023-02-28T02:34:45;2.70;99.90
20364;DHT22;10340;53.664;9.908;2023-02-28T02:37:23;2.70;99.90
20364;DHT22;10340;53.664;9.908;2023-02-28T02:39:59;2.80;99.90
20364;DHT22;10340;53.664;9.908;2023-02-28T02:42:29;2.80;99.90
20364;DHT22;10340;53.664;9.908;2023-02-28T02:45:01;2.70;99.90
20364;DHT22;10340;53.664;9.908;2023-02-28T02:47:32;2.70;99.90
20364;DHT22;10340;53.664;9.908;2023-02-28T02:50:03;2.70;99.90
20364;DHT22;10340;53.664;9.908;2023-02-28T02:52:35;2.80;99.90
20364;DHT22;10340;53.664;9.908;2023-02-28T02:55:06;2.80;99.90
20364;DHT22;10340;53.664;9.908;2023-02-28T02:57:40;2.80;99.90
20364;DHT22;10340;53.664;9.908;2023-02-28T03:00:11;2.80;99.90
20364;DHT22;10340;53.664;9.908;2023-02-28T03:02:39;2.70;99.90
20364;DHT22;10340;53.664;9.908;2023-02-28T03:05:14;2.80;99.90
20364;DHT22;10340;53.664;9.908;2023-02-28T03:07:42;2.80;99.90
20364;DHT22;10340;53.664;9.908;2023-02-28T03:10:43;2.80;99.90
20364;DHT22;10340;53.664;9.908;2023-02-28T03:13:28;2.80;99.90
20364;DHT22;10340;53.664;9.908;2023-02-28T03:16:24;2.70;99.90
20364;DHT22;10340;53.664;9.908;2023-02-28T03:19:00;2.60;99.90
20364;DHT22;10340;53.664;9.908;2023-02-28T03:21:35;2.60;99.90
20364;DHT22;10340;53.664;9.908;2023-02-28T03:24:06;2.70;99.90
20364;DHT22;10340;53.664;9.908;2023-02-28T03:26:41;2.40;99.90
20364;DHT22;10340;53.664;9.908;2023-02-28T03:29:15;2.40;99.90
20364;DHT22;10340;53.664;9.908;2023-02-28T03:31:46;2.30;99.90
20364;DHT22;10340;53.664;9.908;2023-02-28T03:34:19;2.20;99.90
20364;DHT22;10340;53.664;9.908;2023-02-28T03:36:52;2.20;99.90
20364;DHT22;10340;53.664;9.908;2023-02-28T03:39:22;2.20;99.90
20364;DHT22;10340;53.664;9.908;2023-02-28T03:42:01;2.10;99.90
20364;DHT22;10340;53.664;9.908;2023-02-28T03:44:35;2.20;99.90
20364;DHT22;10340;53.664;9.908;2023-02-28T03:47:09;2.00;99.90
20364;DHT22;10340;53.664;9.908;2023-02-28T03:49:42;2.00;99.90
20364;DHT22;10340;53.664;9.908;2023-02-28T03:52:14;1.90;99.90
20364;DHT22;10340;53.664;9.908;2023-02-28T03:54:45;2.20;99.90
20364;DHT22;10340;53.664;9.908;2023-02-28T03:57:20;1.90;99.90
20364;DHT22;10340;53.664;9.908;2023-02-28T03:59:53;1.90;99.90
20364;DHT22;10340;53.664;9.908;2023-02-28T04:04:48;1.90;99.90
20364;DHT22;10340;53.664;9.908;2023-02-28T04:07:17;1.80;99.90
20364;DHT22;10340;53.664;9.908;2023-02-28T04:09:44;1.80;99.90
20364;DHT22;10340;53.664;9.908;2023-02-28T04:12:11;1.70;99.90
20364;DHT22;10340;53.664;9.908;2023-02-28T04:14:38;1.60;99.90
20364;DHT22;10340;53.664;9.908;2023-02-28T04:17:05;1.60;99.90
20364;DHT22;10340;53.664;9.908;2023-02-28T04:19:33;1.50;99.90
20364;DHT22;10340;53.664;9.908;2023-02-28T04:21:59;1.50;99.90
20364;DHT22;10340;53.664;9.908;2023-02-28T04:24:28;1.40;99.90
20364;DHT22;10340;53.664;9.908;2023-02-28T04:26:57;1.30;99.90
20364;DHT22;10340;53.664;9.908;2023-02-28T04:29:26;1.30;99.90
20364;DHT22;10340;53.664;9.908;2023-02-28T04:31:54;1.20;99.90
20364;DHT22;10340;53.664;9.908;2023-02-28T04:34:23;1.20;99.90
20364;DHT22;10340;53.664;9.908;2023-02-28T04:36:51;1.10;99.90
20364;DHT22;10340;53.664;9.908;2023-02-28T04:39:20;1.10;99.90
20364;DHT22;10340;53.664;9.908;2023-02-28T04:41:49;1.00;99.90
20364;DHT22;10340;53.664;9.908;2023-02-28T04:44:16;1.00;99.90
20364;DHT22;10340;53.664;9.908;2023-02-28T04:46:44;1.00;99.90
20364;DHT22;10340;53.664;9.908;2023-02-28T04:49:11;0.90;99.90
20364;DHT22;10340;53.664;9.908;2023-02-28T04:51:40;0.90;99.90
20364;DHT22;10340;53.664;9.908;2023-02-28T04:54:07;0.90;99.90
20364;DHT22;10340;53.664;9.908;2023-02-28T04:59:03;0.90;99.90
20364;DHT22;10340;53.664;9.908;2023-02-28T05:01:31;0.80;99.90
20364;DHT22;10340;53.664;9.908;2023-02-28T05:04:00;0.70;99.90
20364;DHT22;10340;53.664;9.908;2023-02-28T05:06:30;0.80;99.90
20364;DHT22;10340;53.664;9.908;2023-02-28T05:11:26;0.70;99.90
20364;DHT22;10340;53.664;9.908;2023-02-28T05:16:23;0.60;99.90
20364;DHT22;10340;53.664;9.908;2023-02-28T05:18:50;0.50;99.90
20364;DHT22;10340;53.664;9.908;2023-02-28T05:21:30;0.50;99.90
20364;DHT22;10340;53.664;9.908;2023-02-28T05:23:58;0.40;99.90
20364;DHT22;10340;53.664;9.908;2023-02-28T05:26:26;0.30;99.90
20364;DHT22;10340;53.664;9.908;2023-02-28T05:28:53;0.30;99.90
20364;DHT22;10340;53.664;9.908;2023-02-28T05:33:49;0.20;99.90
20364;DHT22;10340;53.664;9.908;2023-02-28T05:38:46;0.10;99.90
20364;DHT22;10340;53.664;9.908;2023-02-28T05:43:41;0.00;99.90
20364;DHT22;10340;53.664;9.908;2023-02-28T05:46:10;0.00;99.90
20364;DHT22;10340;53.664;9.908;2023-02-28T05:48:38;-0.20;99.90
20364;DHT22;10340;53.664;9.908;2023-02-28T05:51:07;0.00;99.90
20364;DHT22;10340;53.664;9.908;2023-02-28T05:53:35;-0.10;99.90
20364;DHT22;10340;53.664;9.908;2023-02-28T05:56:03;-0.10;99.90
20364;DHT22;10340;53.664;9.908;2023-02-28T06:00:57;-0.20;99.90
20364;DHT22;10340;53.664;9.908;2023-02-28T06:03:25;-0.20;99.90
20364;DHT22;10340;53.664;9.908;2023-02-28T06:05:52;-0.30;99.90
20364;DHT22;10340;53.664;9.908;2023-02-28T06:08:20;-0.20;99.90
20364;DHT22;10340;53.664;9.908;2023-02-28T06:10:47;-0.30;99.90
20364;DHT22;10340;53.664;9.908;2023-02-28T06:15:42;-0.40;99.90
20364;DHT22;10340;53.664;9.908;2023-02-28T06:20:36;-0.40;99.90
20364;DHT22;10340;53.664;9.908;2023-02-28T06:23:03;-0.40;99.90
20364;DHT22;10340;53.664;9.908;2023-02-28T06:25:31;-0.50;99.90
20364;DHT22;10340;53.664;9.908;2023-02-28T06:30:26;-0.50;99.90
20364;DHT22;10340;53.664;9.908;2023-02-28T06:35:23;-0.50;99.90
20364;DHT22;10340;53.664;9.908;2023-02-28T06:37:50;-0.50;99.90
20364;DHT22;10340;53.664;9.908;2023-02-28T06:40:17;-0.50;99.90
20364;DHT22;10340;53.664;9.908;2023-02-28T06:42:46;-0.50;99.90
20364;DHT22;10340;53.664;9.908;2023-02-28T06:47:41;-0.40;99.90
20364;DHT22;10340;53.664;9.908;2023-02-28T06:50:11;-0.40;99.90
20364;DHT22;10340;53.664;9.908;2023-02-28T06:52:38;-0.50;99.90
20364;DHT22;10340;53.664;9.908;2023-02-28T06:55:07;-0.40;99.90
20364;DHT22;10340;53.664;9.908;2023-02-28T06:57:35;-0.30;99.90
20364;DHT22;10340;53.664;9.908;2023-02-28T07:00:08;0.30;99.90
20364;DHT22;10340;53.664;9.908;2023-02-28T07:02:36;-0.30;99.90
20364;DHT22;10340;53.664;9.908;2023-02-28T07:05:04;-0.20;99.90
20364;DHT22;10340;53.664;9.908;2023-02-28T07:07:32;-0.20;99.90
20364;DHT22;10340;53.664;9.908;2023-02-28T07:10:01;-0.10;99.90
20364;DHT22;10340;53.664;9.908;2023-02-28T07:12:28;-0.10;99.90
20364;DHT22;10340;53.664;9.908;2023-02-28T07:14:55;-0.10;99.90
20364;DHT22;10340;53.664;9.908;2023-02-28T07:17:24;-0.10;99.90
20364;DHT22;10340;53.664;9.908;2023-02-28T07:19:51;0.30;99.90
20364;DHT22;10340;53.664;9.908;2023-02-28T07:24:48;0.20;99.90
20364;DHT22;10340;53.664;9.908;2023-02-28T07:29:49;0.30;99.90
20364;DHT22;10340;53.664;9.908;2023-02-28T07:32:19;0.40;99.90
20364;DHT22;10340;53.664;9.908;2023-02-28T07:34:47;0.60;99.90
20364;DHT22;10340;53.664;9.908;2023-02-28T07:37:15;0.60;99.90
20364;DHT22;10340;53.664;9.908;2023-02-28T07:44:38;0.80;99.90
20364;DHT22;10340;53.664;9.908;2023-02-28T07:47:07;0.90;99.90
20364;DHT22;10340;53.664;9.908;2023-02-28T07:49:35;1.00;99.90
20364;DHT22;10340;53.664;9.908;2023-02-28T07:52:04;1.30;99.90
20364;DHT22;10340;53.664;9.908;2023-02-28T07:56:57;1.30;99.90
20364;DHT22;10340;53.664;9.908;2023-02-28T07:59:24;1.60;99.90
20364;DHT22;10340;53.664;9.908;2023-02-28T08:01:51;1.50;99.90
20364;DHT22;10340;53.664;9.908;2023-02-28T08:04:19;1.60;99.90
20364;DHT22;10340;53.664;9.908;2023-02-28T08:06:46;1.70;99.90
20364;DHT22;10340;53.664;9.908;2023-02-28T08:09:14;2.00;99.90
20364;DHT22;10340;53.664;9.908;2023-02-28T08:11:41;1.80;99.90
20364;DHT22;10340;53.664;9.908;2023-02-28T08:14:08;1.90;99.90
20364;DHT22;10340;53.664;9.908;2023-02-28T08:16:35;1.90;99.90
20364;DHT22;10340;53.664;9.908;2023-02-28T08:19:03;2.00;99.90
20364;DHT22;10340;53.664;9.908;2023-02-28T08:21:30;2.00;99.90
20364;DHT22;10340;53.664;9.908;2023-02-28T08:23:57;2.20;99.90
20364;DHT22;10340;53.664;9.908;2023-02-28T08:26:25;2.40;99.90
20364;DHT22;10340;53.664;9.908;2023-02-28T08:28:52;2.40;99.90
20364;DHT22;10340;53.664;9.908;2023-02-28T08:31:19;2.50;99.90
20364;DHT22;10340;53.664;9.908;2023-02-28T08:33:46;2.50;99.90
20364;DHT22;10340;53.664;9.908;2023-02-28T08:36:16;2.60;99.90
20364;DHT22;10340;53.664;9.908;2023-02-28T08:38:44;2.70;99.90
20364;DHT22;10340;53.664;9.908;2023-02-28T08:41:12;2.70;99.90
20364;DHT22;10340;53.664;9.908;2023-02-28T08:43:41;2.80;99.90
20364;DHT22;10340;53.664;9.908;2023-02-28T08:46:11;2.90;99.90
20364;DHT22;10340;53.664;9.908;2023-02-28T08:48:39;3.00;99.90
20364;DHT22;10340;53.664;9.908;2023-02-28T08:51:07;3.00;99.90
20364;DHT22;10340;53.664;9.908;2023-02-28T08:53:36;3.10;99.90
20364;DHT22;10340;53.664;9.908;2023-02-28T08:56:04;3.20;99.90
20364;DHT22;10340;53.664;9.908;2023-02-28T08:58:32;3.30;99.90
20364;DHT22;10340;53.664;9.908;2023-02-28T09:01:08;3.40;99.90
20364;DHT22;10340;53.664;9.908;2023-02-28T09:03:35;3.50;99.90
20364;DHT22;10340;53.664;9.908;2023-02-28T09:06:03;3.60;99.90
20364;DHT22;10340;53.664;9.908;2023-02-28T09:08:30;3.60;99.90
20364;DHT22;10340;53.664;9.908;2023-02-28T09:10:58;3.60;99.90
20364;DHT22;10340;53.664;9.908;2023-02-28T09:13:25;3.60;99.90
20364;DHT22;10340;53.664;9.908;2023-02-28T09:15:53;3.70;99.90
20364;DHT22;10340;53.664;9.908;2023-02-28T09:18:22;3.80;99.90
20364;DHT22;10340;53.664;9.908;2023-02-28T09:20:49;3.90;99.90
20364;DHT22;10340;53.664;9.908;2023-02-28T09:23:16;3.90;99.90
20364;DHT22;10340;53.664;9.908;2023-02-28T09:25:47;4.10;99.90
20364;DHT22;10340;53.664;9.908;2023-02-28T09:28:15;4.20;99.90
20364;DHT22;10340;53.664;9.908;2023-02-28T09:30:44;4.30;99.90
20364;DHT22;10340;53.664;9.908;2023-02-28T09:33:12;4.40;99.90
20364;DHT22;10340;53.664;9.908;2023-02-28T09:35:41;4.40;99.90
20364;DHT22;10340;53.664;9.908;2023-02-28T09:38:09;4.50;99.90
20364;DHT22;10340;53.664;9.908;2023-02-28T09:40:38;4.60;99.90
20364;DHT22;10340;53.664;9.908;2023-02-28T09:43:09;4.70;99.90
20364;DHT22;10340;53.664;9.908;2023-02-28T09:45:41;4.70;99.90
20364;DHT22;10340;53.664;9.908;2023-02-28T09:48:14;4.80;99.90
20364;DHT22;10340;53.664;9.908;2023-02-28T09:50:46;4.80;99.90
20364;DHT22;10340;53.664;9.908;2023-02-28T09:53:20;4.90;99.90
20364;DHT22;10340;53.664;9.908;2023-02-28T09:55:51;4.90;99.90
20364;DHT22;10340;53.664;9.908;2023-02-28T09:58:23;4.90;99.90
20364;DHT22;10340;53.664;9.908;2023-02-28T10:01:00;5.00;99.90
20364;DHT22;10340;53.664;9.908;2023-02-28T10:03:32;5.00;99.90
20364;DHT22;10340;53.664;9.908;2023-02-28T10:06:10;5.10;99.90
20364;DHT22;10340;53.664;9.908;2023-02-28T10:08:42;5.20;99.90
20364;DHT22;10340;53.664;9.908;2023-02-28T10:11:14;5.20;99.90
20364;DHT22;10340;53.664;9.908;2023-02-28T10:13:51;5.20;99.90
20364;DHT22;10340;53.664;9.908;2023-02-28T10:16:25;5.30;99.90
20364;DHT22;10340;53.664;9.908;2023-02-28T10:18:57;5.30;99.90
20364;DHT22;10340;53.664;9.908;2023-02-28T10:21:30;5.50;99.90
20364;DHT22;10340;53.664;9.908;2023-02-28T10:24:03;5.50;99.90
20364;DHT22;10340;53.664;9.908;2023-02-28T10:26:32;5.50;99.90
20364;DHT22;10340;53.664;9.908;2023-02-28T10:28:59;5.50;99.90
20364;DHT22;10340;53.664;9.908;2023-02-28T10:31:28;5.60;99.90
20364;DHT22;10340;53.664;9.908;2023-02-28T10:33:55;5.70;99.90
20364;DHT22;10340;53.664;9.908;2023-02-28T10:36:22;5.60;99.90
20364;DHT22;10340;53.664;9.908;2023-02-28T10:38:51;5.70;99.90
20364;DHT22;10340;53.664;9.908;2023-02-28T10:41:28;5.80;99.90
20364;DHT22;10340;53.664;9.908;2023-02-28T10:44:13;5.90;99.90
20364;DHT22;10340;53.664;9.908;2023-02-28T10:46:41;5.90;99.90
20364;DHT22;10340;53.664;9.908;2023-02-28T10:49:14;6.10;99.90
20364;DHT22;10340;53.664;9.908;2023-02-28T10:51:43;6.00;99.90
20364;DHT22;10340;53.664;9.908;2023-02-28T10:54:30;5.90;99.90
20364;DHT22;10340;53.664;9.908;2023-02-28T10:57:15;6.00;99.90
20364;DHT22;10340;53.664;9.908;2023-02-28T10:59:43;6.00;99.90
20364;DHT22;10340;53.664;9.908;2023-02-28T11:02:32;6.10;99.90
20364;DHT22;10340;53.664;9.908;2023-02-28T11:04:59;6.20;99.90
20364;DHT22;10340;53.664;9.908;2023-02-28T11:07:26;6.20;99.90
20364;DHT22;10340;53.664;9.908;2023-02-28T11:09:57;6.20;99.90
20364;DHT22;10340;53.664;9.908;2023-02-28T11:12:27;6.30;99.90
20364;DHT22;10340;53.664;9.908;2023-02-28T11:14:57;6.30;99.90
20364;DHT22;10340;53.664;9.908;2023-02-28T11:17:27;6.40;99.90
20364;DHT22;10340;53.664;9.908;2023-02-28T11:19:57;6.40;99.90
20364;DHT22;10340;53.664;9.908;2023-02-28T11:22:27;6.50;99.90
20364;DHT22;10340;53.664;9.908;2023-02-28T11:24:59;6.50;99.90
20364;DHT22;10340;53.664;9.908;2023-02-28T11:27:47;6.60;99.90
20364;DHT22;10340;53.664;9.908;2023-02-28T11:30:39;6.60;99.90
20364;DHT22;10340;53.664;9.908;2023-02-28T11:33:24;6.60;99.90
20364;DHT22;10340;53.664;9.908;2023-02-28T11:35:57;6.70;99.90
20364;DHT22;10340;53.664;9.908;2023-02-28T11:38:26;6.70;99.90
20364;DHT22;10340;53.664;9.908;2023-02-28T11:41:05;6.70;99.90
20364;DHT22;10340;53.664;9.908;2023-02-28T11:43:47;6.80;99.90
20364;DHT22;10340;53.664;9.908;2023-02-28T11:46:25;6.90;99.90
20364;DHT22;10340;53.664;9.908;2023-02-28T11:49:00;6.90;99.90
20364;DHT22;10340;53.664;9.908;2023-02-28T11:51:33;6.90;99.90
20364;DHT22;10340;53.664;9.908;2023-02-28T11:54:23;6.90;99.90
20364;DHT22;10340;53.664;9.908;2023-02-28T11:56:57;7.00;99.90
20364;DHT22;10340;53.664;9.908;2023-02-28T11:59:36;6.80;99.90
20364;DHT22;10340;53.664;9.908;2023-02-28T12:02:25;7.00;99.90
20364;DHT22;10340;53.664;9.908;2023-02-28T12:05:10;7.00;99.90
20364;DHT22;10340;53.664;9.908;2023-02-28T12:07:52;7.00;99.90
20364;DHT22;10340;53.664;9.908;2023-02-28T12:10:25;7.10;99.90
20364;DHT22;10340;53.664;9.908;2023-02-28T12:13:05;7.10;99.90
20364;DHT22;10340;53.664;9.908;2023-02-28T12:19:19;7.10;99.90
20364;DHT22;10340;53.664;9.908;2023-02-28T12:22:06;7.10;99.90
20364;DHT22;10340;53.664;9.908;2023-02-28T12:24:54;7.20;99.90
20364;DHT22;10340;53.664;9.908;2023-02-28T12:27:24;7.10;99.90
20364;DHT22;10340;53.664;9.908;2023-02-28T12:29:58;7.20;99.90
20364;DHT22;10340;53.664;9.908;2023-02-28T12:32:30;7.10;99.90
20364;DHT22;10340;53.664;9.908;2023-02-28T12:35:01;7.20;99.90
20364;DHT22;10340;53.664;9.908;2023-02-28T12:37:33;7.20;99.90
20364;DHT22;10340;53.664;9.908;2023-02-28T12:40:09;7.30;99.90
20364;DHT22;10340;53.664;9.908;2023-02-28T12:42:40;7.30;99.90
20364;DHT22;10340;53.664;9.908;2023-02-28T12:45:12;7.30;99.90
20364;DHT22;10340;53.664;9.908;2023-02-28T12:47:42;7.30;99.90
20364;DHT22;10340;53.664;9.908;2023-02-28T12:50:11;7.30;99.90
20364;DHT22;10340;53.664;9.908;2023-02-28T12:52:51;7.20;99.90
20364;DHT22;10340;53.664;9.908;2023-02-28T12:55:27;7.20;99.90
20364;DHT22;10340;53.664;9.908;2023-02-28T12:58:01;7.20;99.90
20364;DHT22;10340;53.664;9.908;2023-02-28T13:00:36;7.20;99.90
20364;DHT22;10340;53.664;9.908;2023-02-28T13:03:32;7.20;99.90
20364;DHT22;10340;53.664;9.908;2023-02-28T13:09:08;7.20;99.90
20364;DHT22;10340;53.664;9.908;2023-02-28T13:11:40;7.20;99.90
20364;DHT22;10340;53.664;9.908;2023-02-28T13:14:20;7.20;99.90
20364;DHT22;10340;53.664;9.908;2023-02-28T13:16:55;7.20;99.90
20364;DHT22;10340;53.664;9.908;2023-02-28T13:19:25;7.60;99.90
20364;DHT22;10340;53.664;9.908;2023-02-28T13:21:53;7.30;99.90
20364;DHT22;10340;53.664;9.908;2023-02-28T13:24:53;7.30;99.90
20364;DHT22;10340;53.664;9.908;2023-02-28T13:27:23;7.30;99.90
20364;DHT22;10340;53.664;9.908;2023-02-28T13:29:52;7.40;99.90
20364;DHT22;10340;53.664;9.908;2023-02-28T13:32:32;7.50;99.90
20364;DHT22;10340;53.664;9.908;2023-02-28T13:35:37;7.60;99.90
20364;DHT22;10340;53.664;9.908;2023-02-28T13:38:23;7.70;99.90
20364;DHT22;10340;53.664;9.908;2023-02-28T13:40:50;7.70;99.90
20364;DHT22;10340;53.664;9.908;2023-02-28T13:43:18;7.70;99.90
20364;DHT22;10340;53.664;9.908;2023-02-28T13:46:05;7.70;99.90
20364;DHT22;10340;53.664;9.908;2023-02-28T13:48:36;7.80;99.90
20364;DHT22;10340;53.664;9.908;2023-02-28T13:51:27;7.80;99.90
20364;DHT22;10340;53.664;9.908;2023-02-28T13:54:04;7.80;99.90
20364;DHT22;10340;53.664;9.908;2023-02-28T13:56:41;7.90;99.90
20364;DHT22;10340;53.664;9.908;2023-02-28T13:59:22;8.00;99.90
20364;DHT22;10340;53.664;9.908;2023-02-28T14:02:03;7.90;99.90
20364;DHT22;10340;53.664;9.908;2023-02-28T14:04:49;7.90;99.90
20364;DHT22;10340;53.664;9.908;2023-02-28T14:07:22;7.80;99.90
20364;DHT22;10340;53.664;9.908;2023-02-28T14:09:57;8.00;99.90
20364;DHT22;10340;53.664;9.908;2023-02-28T14:12:58;7.80;99.90
20364;DHT22;10340;53.664;9.908;2023-02-28T14:15:54;7.90;99.90
20364;DHT22;10340;53.664;9.908;2023-02-28T14:18:29;7.90;99.90
20364;DHT22;10340;53.664;9.908;2023-02-28T14:21:14;7.80;99.90
20364;DHT22;10340;53.664;9.908;2023-02-28T14:24:20;7.80;99.90
20364;DHT22;10340;53.664;9.908;2023-02-28T14:32:54;7.80;99.90
20364;DHT22;10340;53.664;9.908;2023-02-28T14:35:43;7.70;99.90
20364;DHT22;10340;53.664;9.908;2023-02-28T14:38:25;7.80;99.90
20364;DHT22;10340;53.664;9.908;2023-02-28T14:40:55;7.70;99.90
20364;DHT22;10340;53.664;9.908;2023-02-28T14:43:26;7.80;99.90
20364;DHT22;10340;53.664;9.908;2023-02-28T14:45:56;7.80;99.90
20364;DHT22;10340;53.664;9.908;2023-02-28T14:48:24;7.80;99.90
20364;DHT22;10340;53.664;9.908;2023-02-28T14:50:54;7.80;99.90
20364;DHT22;10340;53.664;9.908;2023-02-28T14:53:26;7.80;99.90
20364;DHT22;10340;53.664;9.908;2023-02-28T14:55:54;7.80;99.90
20364;DHT22;10340;53.664;9.908;2023-02-28T14:58:24;7.70;99.90
20364;DHT22;10340;53.664;9.908;2023-02-28T15:00:53;7.70;99.90
20364;DHT22;10340;53.664;9.908;2023-02-28T15:03:22;7.60;99.90
20364;DHT22;10340;53.664;9.908;2023-02-28T15:05:55;7.70;99.90
20364;DHT22;10340;53.664;9.908;2023-02-28T15:08:24;7.70;99.90
20364;DHT22;10340;53.664;9.908;2023-02-28T15:10:53;7.70;99.90
20364;DHT22;10340;53.664;9.908;2023-02-28T15:13:21;7.70;99.90
20364;DHT22;10340;53.664;9.908;2023-02-28T15:15:53;7.70;99.90
20364;DHT22;10340;53.664;9.908;2023-02-28T15:18:27;7.70;99.90
20364;DHT22;10340;53.664;9.908;2023-02-28T15:20:56;7.80;99.90
20364;DHT22;10340;53.664;9.908;2023-02-28T15:23:25;7.90;99.90
20364;DHT22;10340;53.664;9.908;2023-02-28T15:25:53;7.90;99.90
20364;DHT22;10340;53.664;9.908;2023-02-28T15:28:22;7.90;99.90
20364;DHT22;10340;53.664;9.908;2023-02-28T15:30:55;7.90;99.90
20364;DHT22;10340;53.664;9.908;2023-02-28T15:33:24;7.90;99.90
20364;DHT22;10340;53.664;9.908;2023-02-28T15:36:04;7.90;99.90
20364;DHT22;10340;53.664;9.908;2023-02-28T15:38:34;7.90;99.90
20364;DHT22;10340;53.664;9.908;2023-02-28T15:41:02;7.80;99.90
20364;DHT22;10340;53.664;9.908;2023-02-28T15:43:37;7.80;99.90
20364;DHT22;10340;53.664;9.908;2023-02-28T15:46:06;7.80;99.90
20364;DHT22;10340;53.664;9.908;2023-02-28T15:48:36;7.70;99.90
20364;DHT22;10340;53.664;9.908;2023-02-28T15:51:08;7.70;99.90
20364;DHT22;10340;53.664;9.908;2023-02-28T15:53:45;7.60;99.90
20364;DHT22;10340;53.664;9.908;2023-02-28T15:56:22;7.60;99.90
20364;DHT22;10340;53.664;9.908;2023-02-28T15:58:50;7.50;99.90
20364;DHT22;10340;53.664;9.908;2023-02-28T16:01:24;7.50;99.90
20364;DHT22;10340;53.664;9.908;2023-02-28T16:03:54;7.50;99.90
20364;DHT22;10340;53.664;9.908;2023-02-28T16:06:39;7.40;99.90
20364;DHT22;10340;53.664;9.908;2023-02-28T16:09:11;7.40;99.90
20364;DHT22;10340;53.664;9.908;2023-02-28T16:11:42;7.40;99.90
20364;DHT22;10340;53.664;9.908;2023-02-28T16:14:15;7.30;99.90
20364;DHT22;10340;53.664;9.908;2023-02-28T16:16:43;7.30;99.90
20364;DHT22;10340;53.664;9.908;2023-02-28T16:19:10;7.30;99.90
20364;DHT22;10340;53.664;9.908;2023-02-28T16:21:37;7.20;99.90
20364;DHT22;10340;53.664;9.908;2023-02-28T16:24:05;7.20;99.90
20364;DHT22;10340;53.664;9.908;2023-02-28T16:26:34;7.10;99.90
20364;DHT22;10340;53.664;9.908;2023-02-28T16:29:03;7.10;99.90
20364;DHT22;10340;53.664;9.908;2023-02-28T16:31:37;7.00;99.90
20364;DHT22;10340;53.664;9.908;2023-02-28T16:34:05;7.00;99.90
20364;DHT22;10340;53.664;9.908;2023-02-28T16:36:32;7.00;99.90
20364;DHT22;10340;53.664;9.908;2023-02-28T16:38:59;6.80;99.90
20364;DHT22;10340;53.664;9.908;2023-02-28T16:41:28;6.80;99.90
20364;DHT22;10340;53.664;9.908;2023-02-28T16:43:59;6.80;99.90
20364;DHT22;10340;53.664;9.908;2023-02-28T16:46:29;6.70;99.90
20364;DHT22;10340;53.664;9.908;2023-02-28T16:48:57;6.60;99.90
20364;DHT22;10340;53.664;9.908;2023-02-28T16:51:24;6.50;99.90
20364;DHT22;10340;53.664;9.908;2023-02-28T16:53:51;6.40;99.90
20364;DHT22;10340;53.664;9.908;2023-02-28T16:56:19;6.30;99.90
20364;DHT22;10340;53.664;9.908;2023-02-28T16:58:48;6.30;99.90
20364;DHT22;10340;53.664;9.908;2023-02-28T17:01:17;6.10;99.90
20364;DHT22;10340;53.664;9.908;2023-02-28T17:03:47;6.10;99.90
20364;DHT22;10340;53.664;9.908;2023-02-28T17:06:19;6.00;99.90
20364;DHT22;10340;53.664;9.908;2023-02-28T17:08:47;5.80;99.90
20364;DHT22;10340;53.664;9.908;2023-02-28T17:11:15;5.80;99.90
20364;DHT22;10340;53.664;9.908;2023-02-28T17:13:42;5.60;99.90
20364;DHT22;10340;53.664;9.908;2023-02-28T17:16:17;5.50;99.90
20364;DHT22;10340;53.664;9.908;2023-02-28T17:18:46;5.40;99.90
20364;DHT22;10340;53.664;9.908;2023-02-28T17:21:14;5.30;99.90